createdAt,value
2023-02-23T00:02:07.358Z,20.60
2023-02-23T00:04:36.051Z,35.30
2023-02-23T00:07:03.593Z,31.50
2023-02-23T00:09:35.763Z,23.93
2023-02-23T00:12:08.116Z,22.73
2023-02-23T00:14:38.036Z,26.83
2023-02-23T00:17:05.526Z,27.50
2023-02-23T00:19:33.633Z,37.10
2023-02-23T00:22:02.163Z,34.17
2023-02-23T00:24:29.867Z,26.27
2023-02-23T00:26:57.104Z,23.17
2023-02-23T00:29:24.989Z,21.93
2023-02-23T00:31:52.995Z,39.57
2023-02-23T00:34:21.739Z,26.70
2023-02-23T00:36:56.691Z,29.87
2023-02-23T00:39:26.568Z,26.27
2023-02-23T00:41:55.473Z,26.50
2023-02-23T00:44:24.095Z,28.27
2023-02-23T00:46:52.327Z,39.40
2023-02-23T00:49:22.343Z,34.00
2023-02-23T00:51:49.587Z,36.40
2023-02-23T00:54:18.123Z,28.67
2023-02-23T00:56:46.165Z,26.20
2023-02-23T00:59:14.722Z,44.50
2023-02-23T01:01:42.421Z,33.50
2023-02-23T01:04:11.381Z,28.47
2023-02-23T01:06:40.845Z,40.23
2023-02-23T01:09:16.147Z,25.20
2023-02-23T01:11:46.662Z,28.57
2023-02-23T01:14:13.703Z,35.87
2023-02-23T01:16:40.782Z,22.67
2023-02-23T01:19:07.970Z,22.10
2023-02-23T01:21:38.529Z,30.30
2023-02-23T01:24:06.492Z,41.87
2023-02-23T01:26:36.939Z,36.80
2023-02-23T01:29:11.141Z,36.10
2023-02-23T01:31:41.961Z,26.13
2023-02-23T01:34:12.916Z,38.83
2023-02-23T01:36:43.138Z,29.03
2023-02-23T01:39:15.004Z,37.43
2023-02-23T01:41:42.435Z,43.73
2023-02-23T01:44:32.076Z,30.00
2023-02-23T01:46:58.981Z,36.20
2023-02-23T01:49:31.171Z,35.07
2023-02-23T01:52:04.292Z,27.67
2023-02-23T01:54:36.442Z,28.63
2023-02-23T01:57:04.972Z,33.23
2023-02-23T01:59:38.144Z,34.97
2023-02-23T02:02:05.434Z,43.37
2023-02-23T02:04:45.476Z,21.90
2023-02-23T02:07:17.821Z,35.13
2023-02-23T02:10:05.243Z,29.87
2023-02-23T02:12:32.194Z,27.50
2023-02-23T02:15:00.867Z,36.93
2023-02-23T02:17:56.453Z,32.47
2023-02-23T02:20:42.863Z,28.17
2023-02-23T02:24:18.878Z,24.97
2023-02-23T02:27:02.803Z,34.13
2023-02-23T02:30:01.802Z,33.90
2023-02-23T02:33:04.137Z,29.43
2023-02-23T02:36:11.381Z,32.00
2023-02-23T02:38:53.763Z,33.57
2023-02-23T02:42:05.143Z,27.03
2023-02-23T02:44:53.128Z,31.30
2023-02-23T02:47:36.305Z,30.33
2023-02-23T02:50:22.018Z,30.30
2023-02-23T02:53:03.299Z,41.83
2023-02-23T02:55:37.420Z,35.65
2023-02-23T02:58:11.409Z,32.90
2023-02-23T03:01:11.803Z,29.90
2023-02-23T03:04:02.364Z,45.93
2023-02-23T03:07:04.171Z,34.20
2023-02-23T03:10:13.023Z,33.00
2023-02-23T03:13:20.845Z,37.50
2023-02-23T03:16:23.998Z,39.57
2023-02-23T03:19:39.943Z,29.80
2023-02-23T03:22:51.226Z,36.27
2023-02-23T03:25:54.205Z,36.60
2023-02-23T03:28:48.704Z,35.90
2023-02-23T03:31:57.430Z,41.80
2023-02-23T03:35:26.782Z,33.53
2023-02-23T03:38:24.328Z,34.00
2023-02-23T03:41:11.236Z,31.37
2023-02-23T03:44:06.829Z,35.13
2023-02-23T03:46:54.721Z,26.17
2023-02-23T03:49:43.481Z,32.27
2023-02-23T03:52:44.389Z,37.90
2023-02-23T03:55:37.122Z,30.00
2023-02-23T03:58:32.358Z,43.70
2023-02-23T04:01:22.037Z,42.13
2023-02-23T04:04:10.769Z,33.10
2023-02-23T04:07:03.081Z,37.80
2023-02-23T04:09:49.963Z,35.93
2023-02-23T04:12:46.793Z,35.23
2023-02-23T04:15:25.540Z,30.90
2023-02-23T04:17:54.035Z,29.30
2023-02-23T04:20:21.548Z,36.93
2023-02-23T04:22:48.455Z,37.87
2023-02-23T04:25:18.027Z,34.20
2023-02-23T04:27:45.029Z,38.80
2023-02-23T04:30:12.624Z,33.07
2023-02-23T04:32:39.698Z,38.77
2023-02-23T04:35:07.454Z,42.23
2023-02-23T04:37:34.345Z,33.27
2023-02-23T04:40:01.260Z,36.90
2023-02-23T04:42:28.759Z,34.77
2023-02-23T04:44:55.669Z,39.47
2023-02-23T04:47:22.623Z,30.03
2023-02-23T04:49:49.487Z,37.90
2023-02-23T04:52:16.656Z,40.17
2023-02-23T04:54:43.610Z,38.97
2023-02-23T04:57:10.836Z,50.53
2023-02-23T04:59:38.142Z,27.63
2023-02-23T05:02:05.232Z,37.40
2023-02-23T05:04:35.280Z,30.50
2023-02-23T05:07:03.669Z,42.37
2023-02-23T05:09:31.608Z,37.17
2023-02-23T05:11:58.532Z,38.53
2023-02-23T05:14:25.614Z,38.13
2023-02-23T05:16:52.715Z,38.27
2023-02-23T05:19:19.733Z,45.40
2023-02-23T05:21:46.664Z,33.83
2023-02-23T05:24:13.536Z,46.10
2023-02-23T05:26:40.458Z,29.90
2023-02-23T05:29:07.442Z,28.20
2023-02-23T05:31:34.482Z,32.20
2023-02-23T05:34:01.395Z,42.47
2023-02-23T05:36:28.504Z,52.17
2023-02-23T05:38:55.422Z,34.47
2023-02-23T05:41:23.807Z,32.40
2023-02-23T05:43:53.557Z,26.10
2023-02-23T05:46:24.302Z,35.27
2023-02-23T05:48:56.191Z,44.20
2023-02-23T05:51:23.144Z,40.07
2023-02-23T05:53:50.096Z,28.77
2023-02-23T05:56:20.712Z,41.20
2023-02-23T05:58:54.171Z,41.07
2023-02-23T06:01:22.600Z,31.27
2023-02-23T06:03:50.486Z,53.33
2023-02-23T06:06:18.448Z,35.27
2023-02-23T06:08:45.876Z,30.47
2023-02-23T06:11:13.085Z,32.33
2023-02-23T06:13:40.340Z,41.73
2023-02-23T06:16:08.618Z,36.63
2023-02-23T06:18:35.741Z,37.40
2023-02-23T06:21:03.971Z,32.95
2023-02-23T06:23:32.842Z,28.90
2023-02-23T06:26:00.229Z,41.97
2023-02-23T06:28:28.808Z,39.20
2023-02-23T06:30:57.059Z,58.23
2023-02-23T06:33:24.616Z,37.23
2023-02-23T06:35:52.620Z,33.87
2023-02-23T06:38:20.601Z,32.67
2023-02-23T06:40:47.560Z,42.25
2023-02-23T06:43:14.588Z,32.10
2023-02-23T06:45:41.783Z,37.53
2023-02-23T06:48:08.732Z,29.57
2023-02-23T06:50:35.748Z,39.00
2023-02-23T06:53:02.864Z,28.97
2023-02-23T06:55:29.852Z,36.25
2023-02-23T06:57:56.830Z,31.20
2023-02-23T07:00:24.326Z,40.60
2023-02-23T07:02:51.308Z,25.75
2023-02-23T07:05:18.357Z,40.00
2023-02-23T07:10:13.124Z,34.13
2023-02-23T07:12:40.056Z,34.60
2023-02-23T07:15:07.984Z,37.33
2023-02-23T07:17:34.914Z,42.60
2023-02-23T07:22:30.419Z,48.90
2023-02-23T07:27:24.930Z,34.57
2023-02-23T07:29:51.942Z,37.17
2023-02-23T07:32:20.033Z,35.97
2023-02-23T07:34:47.837Z,30.17
2023-02-23T07:37:15.542Z,25.63
2023-02-23T07:39:42.493Z,37.33
2023-02-23T07:42:09.385Z,33.10
2023-02-23T07:44:36.468Z,38.50
2023-02-23T07:47:03.597Z,44.00
2023-02-23T07:49:31.293Z,21.50
2023-02-23T07:51:58.360Z,35.83
2023-02-23T07:54:26.640Z,37.00
2023-02-23T07:56:53.909Z,32.53
2023-02-23T07:59:21.109Z,43.50
2023-02-23T08:01:48.147Z,43.60
2023-02-23T08:04:15.148Z,33.53
2023-02-23T08:06:42.088Z,34.83
2023-02-23T08:09:10.672Z,39.67
2023-02-23T08:11:37.756Z,34.50
2023-02-23T08:14:04.661Z,29.00
2023-02-23T08:16:33.503Z,30.03
2023-02-23T08:19:02.180Z,31.43
2023-02-23T08:21:30.009Z,43.50
2023-02-23T08:23:57.941Z,31.03
2023-02-23T08:26:25.564Z,27.90
2023-02-23T08:28:54.382Z,41.70
2023-02-23T08:31:24.265Z,30.53
2023-02-23T08:33:52.584Z,25.50
2023-02-23T08:36:20.664Z,33.03
2023-02-23T08:38:48.413Z,39.83
2023-02-23T08:41:15.700Z,41.20
2023-02-23T08:43:44.134Z,35.70
2023-02-23T08:46:11.530Z,39.33
2023-02-23T08:48:40.301Z,25.77
2023-02-23T08:51:08.598Z,31.20
2023-02-23T08:53:36.515Z,36.07
2023-02-23T08:56:07.517Z,44.50
2023-02-23T08:58:36.220Z,33.17
2023-02-23T09:01:03.797Z,29.73
2023-02-23T09:03:31.777Z,29.70
2023-02-23T09:06:08.478Z,34.93
2023-02-23T09:08:35.571Z,37.70
2023-02-23T09:11:02.627Z,36.37
2023-02-23T09:13:29.546Z,30.47
2023-02-23T09:15:56.473Z,32.20
2023-02-23T09:18:24.142Z,34.03
2023-02-23T09:20:51.600Z,30.50
2023-02-23T09:23:18.601Z,33.90
2023-02-23T09:25:46.603Z,42.00
2023-02-23T09:28:16.204Z,27.80
2023-02-23T09:30:45.204Z,63.53
2023-02-23T09:33:13.418Z,33.03
2023-02-23T09:35:41.408Z,32.70
2023-02-23T09:38:09.422Z,38.70
2023-02-23T09:40:54.133Z,28.67
2023-02-23T09:43:45.221Z,37.57
2023-02-23T09:47:02.724Z,25.33
2023-02-23T09:49:34.963Z,36.80
2023-02-23T09:52:03.982Z,33.20
2023-02-23T09:54:34.585Z,63.50
2023-02-23T09:57:06.380Z,97.90
2023-02-23T09:59:35.944Z,34.83
2023-02-23T10:02:24.144Z,34.53
2023-02-23T10:04:59.624Z,27.37
2023-02-23T10:07:51.008Z,32.10
2023-02-23T10:10:46.982Z,31.70
2023-02-23T10:13:16.582Z,31.15
2023-02-23T10:16:24.608Z,29.90
2023-02-23T10:19:07.051Z,26.90
2023-02-23T10:21:39.869Z,29.50
2023-02-23T10:24:19.505Z,32.40
2023-02-23T10:26:51.570Z,36.70
2023-02-23T10:29:53.312Z,29.40
2023-02-23T10:33:00.934Z,25.23
2023-02-23T10:35:30.302Z,30.90
2023-02-23T10:38:00.598Z,27.37
2023-02-23T10:40:47.489Z,28.33
2023-02-23T10:43:53.004Z,28.07
2023-02-23T10:47:07.158Z,28.67
2023-02-23T10:51:15.271Z,28.60
2023-02-23T11:01:31.030Z,36.83
2023-02-23T11:04:40.110Z,34.37
2023-02-23T11:07:36.166Z,29.10
2023-02-23T11:10:49.002Z,29.00
2023-02-23T11:16:59.473Z,39.60
2023-02-23T11:23:40.179Z,33.17
2023-02-23T11:37:33.699Z,30.60
2023-02-23T11:40:09.478Z,29.80
2023-02-23T11:43:07.869Z,38.30
2023-02-23T11:46:02.989Z,27.93
2023-02-23T11:48:54.722Z,38.43
2023-02-23T11:52:05.117Z,50.50
2023-02-23T12:00:49.078Z,31.07
2023-02-23T12:03:29.916Z,34.57
2023-02-23T12:10:33.401Z,37.17
2023-02-23T12:11:07.745Z,43.30
2023-02-23T12:14:00.125Z,34.70
2023-02-23T12:16:47.476Z,35.93
2023-02-23T12:19:38.086Z,33.43
2023-02-23T12:23:06.995Z,31.63
2023-02-23T12:25:55.761Z,41.43
2023-02-23T12:29:01.523Z,36.60
2023-02-23T12:33:09.274Z,34.23
2023-02-23T12:36:23.842Z,35.00
2023-02-23T12:39:45.447Z,28.70
2023-02-23T12:42:35.595Z,40.67
2023-02-23T12:45:25.845Z,36.40
2023-02-23T12:48:44.210Z,35.00
2023-02-23T12:53:02.286Z,32.63
2023-02-23T12:56:41.537Z,36.50
2023-02-23T13:08:32.202Z,39.13
2023-02-23T13:20:14.115Z,61.43
2023-02-23T13:23:54.727Z,35.23
2023-02-23T13:28:04.911Z,36.47
2023-02-23T13:38:15.053Z,42.47
2023-02-23T13:39:29.852Z,34.33
2023-02-23T13:42:26.693Z,29.50
2023-02-23T13:50:36.353Z,38.93
2023-02-23T13:53:52.779Z,30.83
2023-02-23T13:58:01.722Z,35.87
2023-02-23T14:00:37.162Z,45.43
2023-02-23T14:03:30.770Z,32.63
2023-02-23T14:13:18.307Z,34.60
2023-02-23T14:14:06.874Z,42.23
2023-02-23T14:20:37.236Z,40.13
2023-02-23T14:27:59.516Z,38.97
2023-02-23T14:31:30.185Z,37.00
2023-02-23T14:41:15.654Z,46.80
2023-02-23T14:42:26.834Z,40.73
2023-02-23T14:49:35.967Z,41.90
2023-02-23T15:02:57.299Z,43.23
2023-02-23T15:05:56.481Z,43.93
2023-02-23T15:08:46.561Z,53.30
2023-02-23T15:12:12.203Z,48.67
2023-02-23T15:19:09.889Z,50.80
2023-02-23T15:21:48.369Z,47.47
2023-02-23T15:24:34.055Z,50.67
2023-02-23T15:27:35.208Z,46.37
2023-02-23T15:30:43.612Z,80.00
2023-02-23T15:33:31.245Z,69.37
2023-02-23T15:36:59.658Z,60.80
2023-02-23T15:43:03.716Z,60.30
2023-02-23T15:45:55.576Z,54.63
2023-02-23T15:48:49.776Z,52.37
2023-02-23T15:52:17.339Z,56.77
2023-02-23T15:55:16.907Z,52.90
2023-02-23T15:58:04.522Z,59.40
2023-02-23T16:00:42.441Z,54.73
2023-02-23T16:04:01.003Z,63.60
2023-02-23T16:06:54.687Z,61.97
2023-02-23T16:09:32.406Z,58.33
2023-02-23T16:12:13.666Z,70.23
2023-02-23T16:14:59.308Z,59.87
2023-02-23T16:17:58.344Z,68.27
2023-02-23T16:20:48.472Z,80.87
2023-02-23T16:23:38.731Z,65.73
2023-02-23T16:26:22.688Z,64.13
2023-02-23T16:29:02.564Z,71.10
2023-02-23T16:31:51.855Z,72.17
2023-02-23T16:34:48.945Z,71.83
2023-02-23T16:37:33.086Z,75.93
2023-02-23T16:40:09.194Z,79.87
2023-02-23T16:42:53.981Z,75.30
2023-02-23T16:45:32.126Z,82.37
2023-02-23T16:48:02.984Z,76.63
2023-02-23T16:50:43.411Z,99.90
2023-02-23T16:53:13.065Z,101.37
2023-02-23T16:56:12.680Z,153.17
2023-02-23T16:58:56.067Z,88.43
2023-02-23T17:01:24.786Z,90.37
2023-02-23T17:04:02.521Z,93.30
2023-02-23T17:06:37.896Z,90.47
2023-02-23T17:09:42.885Z,96.63
2023-02-23T17:12:22.127Z,100.10
2023-02-23T17:14:52.225Z,87.37
2023-02-23T17:17:26.228Z,105.93
2023-02-23T17:20:01.701Z,102.53
2023-02-23T17:22:29.511Z,103.63
2023-02-23T17:25:02.368Z,107.13
2023-02-23T17:27:40.469Z,99.70
2023-02-23T17:30:25.486Z,93.20
2023-02-23T17:33:02.860Z,90.30
2023-02-23T17:35:55.477Z,94.13
2023-02-23T17:38:37.116Z,103.33
2023-02-23T17:41:23.126Z,86.80
2023-02-23T17:44:09.772Z,102.53
2023-02-23T17:46:48.694Z,93.93
2023-02-23T17:49:36.800Z,113.33
2023-02-23T17:52:05.182Z,98.27
2023-02-23T17:54:45.156Z,94.40
2023-02-23T17:57:33.739Z,104.53
2023-02-23T18:00:02.443Z,101.57
2023-02-23T18:02:40.804Z,100.43
2023-02-23T18:05:14.293Z,94.13
2023-02-23T18:08:02.831Z,113.03
2023-02-23T18:10:38.664Z,109.60
2023-02-23T18:13:23.346Z,111.47
2023-02-23T18:16:32.647Z,136.60
2023-02-23T18:19:21.408Z,129.23
2023-02-23T18:22:15.829Z,105.90
2023-02-23T18:24:50.355Z,98.57
2023-02-23T18:30:23.011Z,98.97
2023-02-23T18:33:04.437Z,118.97
2023-02-23T18:35:43.067Z,96.37
2023-02-23T18:38:13.284Z,111.37
2023-02-23T18:40:45.548Z,100.53
2023-02-23T18:43:22.423Z,98.40
2023-02-23T18:45:56.863Z,105.67
2023-02-23T18:48:35.059Z,90.83
2023-02-23T18:51:18.756Z,113.00
2023-02-23T18:53:58.551Z,100.97
2023-02-23T18:56:38.295Z,93.87
2023-02-23T18:59:25.277Z,90.60
2023-02-23T19:02:21.125Z,92.90
2023-02-23T19:04:51.826Z,88.00
2023-02-23T19:07:25.223Z,81.40
2023-02-23T19:10:18.362Z,92.13
2023-02-23T19:13:13.483Z,130.30
2023-02-23T19:15:55.277Z,127.17
2023-02-23T19:18:31.867Z,90.33
2023-02-23T19:21:13.976Z,85.30
2023-02-23T19:24:10.431Z,98.57
2023-02-23T19:26:47.488Z,96.33
2023-02-23T19:29:26.310Z,86.23
2023-02-23T19:31:57.035Z,84.87
2023-02-23T19:34:30.182Z,73.83
2023-02-23T19:36:58.170Z,87.70
2023-02-23T19:39:29.088Z,73.87
2023-02-23T19:42:03.539Z,73.07
2023-02-23T19:44:33.912Z,82.77
2023-02-23T19:47:02.495Z,78.10
2023-02-23T19:49:30.978Z,77.13
2023-02-23T19:51:59.252Z,72.43
2023-02-23T19:54:29.117Z,73.10
2023-02-23T19:56:56.937Z,73.67
2023-02-23T19:59:25.377Z,68.07
2023-02-23T20:01:54.347Z,60.90
2023-02-23T20:04:28.306Z,51.03
2023-02-23T20:07:02.526Z,56.00
2023-02-23T20:09:30.678Z,46.10
2023-02-23T20:11:58.309Z,48.73
2023-02-23T20:14:27.228Z,41.03
2023-02-23T20:16:57.749Z,37.97
2023-02-23T20:19:30.397Z,44.53
2023-02-23T20:22:05.240Z,54.73
2023-02-23T20:24:41.628Z,58.47
2023-02-23T20:27:12.428Z,51.87
2023-02-23T20:29:40.064Z,67.83
2023-02-23T20:32:10.401Z,74.73
2023-02-23T20:34:39.446Z,88.23
2023-02-23T20:37:12.246Z,67.37
2023-02-23T20:39:43.352Z,58.30
2023-02-23T20:42:14.209Z,61.03
2023-02-23T20:44:45.554Z,65.63
2023-02-23T20:47:15.160Z,68.03
2023-02-23T20:49:49.927Z,54.57
2023-02-23T20:52:17.766Z,83.07
2023-02-23T20:54:46.280Z,82.07
2023-02-23T20:57:20.417Z,67.90
2023-02-23T21:00:05.168Z,70.80
2023-02-23T21:02:39.429Z,81.27
2023-02-23T21:05:15.698Z,74.50
2023-02-23T21:07:50.688Z,74.63
2023-02-23T21:10:28.018Z,83.60
2023-02-23T21:12:58.666Z,87.00
2023-02-23T21:15:27.626Z,76.70
2023-02-23T21:17:56.340Z,71.90
2023-02-23T21:20:27.552Z,75.97
2023-02-23T21:23:01.170Z,79.70
2023-02-23T21:25:36.223Z,78.40
2023-02-23T21:28:03.791Z,71.77
2023-02-23T21:30:31.309Z,70.23
2023-02-23T21:33:03.498Z,77.37
2023-02-23T21:35:35.493Z,72.10
2023-02-23T21:38:04.237Z,73.93
2023-02-23T21:40:34.768Z,87.03
2023-02-23T21:43:06.711Z,81.03
2023-02-23T21:45:49.825Z,80.20
2023-02-23T21:48:24.248Z,71.37
2023-02-23T21:50:52.957Z,67.50
2023-02-23T21:53:25.869Z,78.37
2023-02-23T21:56:21.686Z,70.63
2023-02-23T21:58:59.334Z,83.40
2023-02-23T22:01:34.445Z,68.23
2023-02-23T22:04:08.273Z,81.27
2023-02-23T22:06:42.350Z,69.77
2023-02-23T22:09:18.422Z,86.70
2023-02-23T22:11:51.947Z,79.50
2023-02-23T22:14:21.299Z,83.73
2023-02-23T22:17:09.363Z,76.07
2023-02-23T22:19:42.622Z,75.93
2023-02-23T22:22:20.168Z,69.83
2023-02-23T22:25:09.390Z,67.07
2023-02-23T22:27:48.085Z,83.30
2023-02-23T22:30:23.066Z,79.13
2023-02-23T22:32:51.688Z,84.23
2023-02-23T22:35:32.364Z,67.80
2023-02-23T22:38:05.948Z,73.73
2023-02-23T22:40:46.190Z,77.10
2023-02-23T22:43:22.315Z,65.57
2023-02-23T22:46:01.448Z,68.47
2023-02-23T22:48:32.240Z,69.87
2023-02-23T22:51:03.937Z,83.73
2023-02-23T22:53:34.834Z,63.77
2023-02-23T22:56:08.965Z,70.07
2023-02-23T22:58:43.244Z,70.77
2023-02-23T23:01:28.115Z,71.67
2023-02-23T23:04:13.023Z,78.33
2023-02-23T23:07:03.158Z,67.37
2023-02-23T23:09:45.251Z,65.87
2023-02-23T23:12:36.475Z,55.87
2023-02-23T23:15:19.677Z,64.47
2023-02-23T23:18:09.539Z,64.27
2023-02-23T23:20:59.698Z,62.17
2023-02-23T23:24:23.841Z,70.07
2023-02-23T23:27:04.027Z,76.90
2023-02-23T23:29:44.829Z,67.50
2023-02-23T23:35:43.022Z,66.53
2023-02-23T23:38:22.934Z,55.30
2023-02-23T23:41:21.586Z,59.10
2023-02-23T23:47:33.443Z,51.43
2023-02-23T23:56:29.789Z,57.67
2023-02-23T23:59:11.808Z,60.43
